createdAt,value
2019-01-11T00:00:11.379Z,4.00
2019-01-11T00:01:11.395Z,4.00
2019-01-11T00:02:11.407Z,4.00
2019-01-11T00:03:11.420Z,4.00
2019-01-11T00:04:11.433Z,4.00
2019-01-11T00:05:11.449Z,4.00
2019-01-11T00:06:11.460Z,4.00
2019-01-11T00:07:11.476Z,4.00
2019-01-11T00:08:11.488Z,4.00
2019-01-11T00:09:11.503Z,4.00
2019-01-11T00:10:11.515Z,4.00
2019-01-11T00:11:11.527Z,4.00
2019-01-11T00:12:11.545Z,4.00
2019-01-11T00:13:11.553Z,4.00
2019-01-11T00:14:11.569Z,4.00
2019-01-11T00:15:11.585Z,4.00
2019-01-11T00:16:11.593Z,4.00
2019-01-11T00:17:11.609Z,4.00
2019-01-11T00:18:11.622Z,4.00
2019-01-11T00:19:11.633Z,4.00
2019-01-11T00:20:12.497Z,4.00
2019-01-11T00:21:11.661Z,4.00
2019-01-11T00:22:11.675Z,4.00
2019-01-11T00:23:11.689Z,4.00
2019-01-11T00:24:11.700Z,4.00
2019-01-11T00:25:11.713Z,4.00
2019-01-11T00:26:11.726Z,4.00
2019-01-11T00:27:11.740Z,4.00
2019-01-11T00:28:11.752Z,4.00
2019-01-11T00:29:11.770Z,4.00
2019-01-11T00:30:11.780Z,4.00
2019-01-11T00:31:11.794Z,4.00
2019-01-11T00:32:11.808Z,4.00
2019-01-11T00:33:11.823Z,4.00
2019-01-11T00:34:11.832Z,4.00
2019-01-11T00:35:11.848Z,4.00
2019-01-11T00:36:11.860Z,4.00
2019-01-11T00:37:11.872Z,4.00
2019-01-11T00:38:11.887Z,4.00
2019-01-11T00:39:11.901Z,4.00
2019-01-11T00:40:11.914Z,4.00
2019-01-11T00:41:11.927Z,4.00
2019-01-11T00:42:11.939Z,4.00
2019-01-11T00:43:15.079Z,4.00
2019-01-11T00:44:11.967Z,4.00
2019-01-11T00:45:11.982Z,4.00
2019-01-11T00:46:11.992Z,4.00
2019-01-11T00:47:12.005Z,4.00
2019-01-11T00:48:12.019Z,4.00
2019-01-11T00:49:13.706Z,4.00
2019-01-11T00:50:12.046Z,4.00
2019-01-11T00:51:12.058Z,4.00
2019-01-11T00:52:12.075Z,4.00
2019-01-11T00:53:12.087Z,4.00
2019-01-11T00:54:12.101Z,4.00
2019-01-11T00:55:12.111Z,4.00
2019-01-11T00:56:12.127Z,4.00
2019-01-11T00:57:12.142Z,4.00
2019-01-11T00:58:12.152Z,4.00
2019-01-11T00:59:12.167Z,4.00
2019-01-11T01:00:12.176Z,4.00
2019-01-11T01:01:12.193Z,4.00
2019-01-11T01:02:12.204Z,4.00
2019-01-11T01:03:12.220Z,4.00
2019-01-11T01:04:12.233Z,4.00
2019-01-11T01:05:12.245Z,4.00
2019-01-11T01:06:12.264Z,4.00
2019-01-11T01:07:12.274Z,4.00
2019-01-11T01:08:12.283Z,4.00
2019-01-11T01:09:12.298Z,4.00
2019-01-11T01:10:12.310Z,4.00
2019-01-11T01:11:12.326Z,4.00
2019-01-11T01:12:12.339Z,4.00
2019-01-11T01:13:12.353Z,4.00
2019-01-11T01:14:12.365Z,4.00
2019-01-11T01:15:12.376Z,4.00
2019-01-11T01:16:12.389Z,4.00
2019-01-11T01:17:12.403Z,4.00
2019-01-11T01:18:12.420Z,4.00
2019-01-11T01:19:12.431Z,4.00
2019-01-11T01:20:12.443Z,4.00
2019-01-11T01:21:12.460Z,4.00
2019-01-11T01:22:12.473Z,4.00
2019-01-11T01:23:12.489Z,4.00
2019-01-11T01:24:12.496Z,4.00
2019-01-11T01:25:12.510Z,4.00
2019-01-11T01:26:12.524Z,4.00
2019-01-11T01:27:12.537Z,4.00
2019-01-11T01:28:12.553Z,4.00
2019-01-11T01:29:12.566Z,4.00
2019-01-11T01:30:12.579Z,4.00
2019-01-11T01:31:12.593Z,4.00
2019-01-11T01:32:12.605Z,4.00
2019-01-11T01:33:12.622Z,4.00
2019-01-11T01:34:12.630Z,4.00
2019-01-11T01:35:12.646Z,4.00
2019-01-11T01:36:12.659Z,4.00
2019-01-11T01:37:12.671Z,4.00
2019-01-11T01:38:12.686Z,4.00
2019-01-11T01:39:12.701Z,4.00
2019-01-11T01:40:12.712Z,4.00
2019-01-11T01:41:12.726Z,4.00
2019-01-11T01:42:12.738Z,4.00
2019-01-11T01:43:12.751Z,4.00
2019-01-11T01:44:12.764Z,4.00
2019-01-11T01:45:12.780Z,4.00
2019-01-11T01:46:12.793Z,4.00
2019-01-11T01:47:12.806Z,4.00
2019-01-11T01:48:12.818Z,4.00
2019-01-11T01:49:12.834Z,4.00
2019-01-11T01:50:12.847Z,4.00
2019-01-11T01:51:12.861Z,4.00
2019-01-11T01:52:12.871Z,4.00
2019-01-11T01:53:12.888Z,4.00
2019-01-11T01:54:12.897Z,4.00
2019-01-11T01:55:12.914Z,4.00
2019-01-11T01:56:12.926Z,4.00
2019-01-11T01:57:12.937Z,4.00
2019-01-11T01:58:12.951Z,4.00
2019-01-11T01:59:12.966Z,4.00
2019-01-11T02:00:12.977Z,4.00
2019-01-11T02:01:12.991Z,4.00
2019-01-11T02:02:13.008Z,4.00
2019-01-11T02:03:13.018Z,4.00
2019-01-11T02:04:13.031Z,4.00
2019-01-11T02:05:13.044Z,4.00
2019-01-11T02:06:13.063Z,4.00
2019-01-11T02:07:13.072Z,4.00
2019-01-11T02:08:13.086Z,4.00
2019-01-11T02:09:13.101Z,4.00
2019-01-11T02:10:13.113Z,4.00
2019-01-11T02:11:13.128Z,4.00
2019-01-11T02:12:13.138Z,4.00
2019-01-11T02:13:13.151Z,4.00
2019-01-11T02:14:13.168Z,4.00
2019-01-11T02:15:13.181Z,4.00
2019-01-11T02:16:13.192Z,4.00
2019-01-11T02:17:13.205Z,4.00
2019-01-11T02:18:13.219Z,4.00
2019-01-11T02:19:13.232Z,4.00
2019-01-11T02:20:13.245Z,4.00
2019-01-11T02:21:13.258Z,4.00
2019-01-11T02:22:13.274Z,4.00
2019-01-11T02:23:13.287Z,4.00
2019-01-11T02:24:13.298Z,4.00
2019-01-11T02:25:13.312Z,4.00
2019-01-11T02:26:13.325Z,4.00
2019-01-11T02:27:13.341Z,4.00
2019-01-11T02:28:13.351Z,4.00
2019-01-11T02:29:13.365Z,4.00
2019-01-11T02:30:13.382Z,4.00
2019-01-11T02:31:13.393Z,4.00
2019-01-11T02:32:13.409Z,4.00
2019-01-11T02:33:13.422Z,4.00
2019-01-11T02:34:13.435Z,4.00
2019-01-11T02:35:13.448Z,4.00
2019-01-11T02:36:13.461Z,4.00
2019-01-11T02:37:13.478Z,4.00
2019-01-11T02:38:13.488Z,4.00
2019-01-11T02:39:13.501Z,4.00
2019-01-11T02:40:13.514Z,4.00
2019-01-11T02:41:13.529Z,4.00
2019-01-11T02:42:13.549Z,4.00
2019-01-11T02:43:13.556Z,4.00
2019-01-11T02:44:13.571Z,4.00
2019-01-11T02:45:13.583Z,4.00
2019-01-11T02:46:13.597Z,4.00
2019-01-11T02:47:13.608Z,4.00
2019-01-11T02:48:13.623Z,4.00
2019-01-11T02:49:13.638Z,4.00
2019-01-11T02:50:13.651Z,4.00
2019-01-11T02:51:13.663Z,4.00
2019-01-11T02:52:13.676Z,4.00
2019-01-11T02:53:13.690Z,4.00
2019-01-11T02:54:13.703Z,4.00
2019-01-11T02:55:13.718Z,4.00
2019-01-11T02:56:13.730Z,4.00
2019-01-11T02:57:13.744Z,4.00
2019-01-11T02:58:13.757Z,4.00
2019-01-11T02:59:13.772Z,4.00
2019-01-11T03:00:13.787Z,4.00
2019-01-11T03:01:13.795Z,4.00
2019-01-11T03:02:13.808Z,4.00
2019-01-11T03:03:13.825Z,4.00
2019-01-11T03:04:13.838Z,4.00
2019-01-11T03:05:13.853Z,4.00
2019-01-11T03:06:13.866Z,4.00
2019-01-11T03:07:13.879Z,4.00
2019-01-11T03:08:13.892Z,4.00
2019-01-11T03:09:13.904Z,4.00
2019-01-11T03:10:13.921Z,4.00
2019-01-11T03:11:13.930Z,4.00
2019-01-11T03:12:13.943Z,4.00
2019-01-11T03:13:13.960Z,4.00
2019-01-11T03:14:13.973Z,4.00
2019-01-11T03:15:13.988Z,4.00
2019-01-11T03:16:13.999Z,4.00
2019-01-11T03:17:14.016Z,4.00
2019-01-11T03:18:14.026Z,4.00
2019-01-11T03:19:14.040Z,4.00
2019-01-11T03:20:14.050Z,4.00
2019-01-11T03:21:14.065Z,4.00
2019-01-11T03:22:14.078Z,4.00
2019-01-11T03:23:14.092Z,4.00
2019-01-11T03:24:14.107Z,4.00
2019-01-11T03:25:14.124Z,4.00
2019-01-11T03:26:14.135Z,4.00
2019-01-11T03:27:14.145Z,4.00
2019-01-11T03:28:14.161Z,4.00
2019-01-11T03:29:14.176Z,4.00
2019-01-11T03:30:14.221Z,4.00
2019-01-11T03:31:14.200Z,4.00
2019-01-11T03:32:14.212Z,4.00
2019-01-11T03:33:14.234Z,4.00
2019-01-11T03:34:14.238Z,4.00
2019-01-11T03:35:14.255Z,4.00
2019-01-11T03:36:14.266Z,4.00
2019-01-11T03:37:14.282Z,4.00
2019-01-11T03:38:14.294Z,4.00
2019-01-11T03:39:14.305Z,4.00
2019-01-11T03:40:14.320Z,4.00
2019-01-11T03:41:14.332Z,4.00
2019-01-11T03:42:14.348Z,4.00
2019-01-11T03:43:14.363Z,4.00
2019-01-11T03:44:14.379Z,4.00
2019-01-11T03:45:14.386Z,4.00
2019-01-11T03:46:14.402Z,4.00
2019-01-11T03:47:14.416Z,4.00
2019-01-11T03:48:14.430Z,4.00
2019-01-11T03:49:14.445Z,4.00
2019-01-11T03:50:14.456Z,4.00
2019-01-11T03:51:14.472Z,4.00
2019-01-11T03:52:14.481Z,4.00
2019-01-11T03:53:14.495Z,4.00
2019-01-11T03:54:14.508Z,4.00
2019-01-11T03:55:14.533Z,4.00
2019-01-11T03:56:14.542Z,4.00
2019-01-11T03:57:14.549Z,4.00
2019-01-11T03:58:14.565Z,4.00
2019-01-11T03:59:14.574Z,4.00
2019-01-11T04:00:14.588Z,4.00
2019-01-11T04:01:14.603Z,4.00
2019-01-11T04:02:14.618Z,4.00
2019-01-11T04:03:14.629Z,4.00
2019-01-11T04:04:14.643Z,4.00
2019-01-11T04:05:14.658Z,4.00
2019-01-11T04:06:14.673Z,4.00
2019-01-11T04:07:14.685Z,4.00
2019-01-11T04:08:14.699Z,4.00
2019-01-11T04:09:14.709Z,4.00
2019-01-11T04:10:14.724Z,4.00
2019-01-11T04:11:14.740Z,4.00
2019-01-11T04:12:14.752Z,4.00
2019-01-11T04:13:14.766Z,4.00
2019-01-11T04:14:14.783Z,4.00
2019-01-11T04:15:14.795Z,4.00
2019-01-11T04:16:14.804Z,4.00
2019-01-11T04:17:14.821Z,4.00
2019-01-11T04:18:14.832Z,4.00
2019-01-11T04:19:14.849Z,4.00
2019-01-11T04:20:15.514Z,4.00
2019-01-11T04:21:14.875Z,4.00
2019-01-11T04:22:14.898Z,4.00
2019-01-11T04:23:14.901Z,4.00
2019-01-11T04:24:14.913Z,4.00
2019-01-11T04:25:14.932Z,4.00
2019-01-11T04:26:14.948Z,4.00
2019-01-11T04:27:14.956Z,4.00
2019-01-11T04:28:14.973Z,4.00
2019-01-11T04:29:14.984Z,4.00
2019-01-11T04:30:14.999Z,4.00
2019-01-11T04:31:15.014Z,4.00
2019-01-11T04:32:15.125Z,4.00
2019-01-11T04:33:15.040Z,4.00
2019-01-11T04:34:15.053Z,4.00
2019-01-11T04:35:15.068Z,4.00
2019-01-11T04:36:15.086Z,4.00
2019-01-11T04:37:15.094Z,4.00
2019-01-11T04:38:15.104Z,4.00
2019-01-11T04:39:15.118Z,4.00
2019-01-11T04:40:15.167Z,4.00
2019-01-11T04:41:15.149Z,4.00
2019-01-11T04:42:15.162Z,4.00
2019-01-11T04:43:15.173Z,4.00
2019-01-11T04:44:15.189Z,4.00
2019-01-11T04:45:15.201Z,4.00
2019-01-11T04:46:15.216Z,4.00
2019-01-11T04:47:15.599Z,4.00
2019-01-11T04:48:15.241Z,4.00
2019-01-11T04:49:15.255Z,4.00
2019-01-11T04:50:15.267Z,4.00
2019-01-11T04:51:15.285Z,4.00
2019-01-11T04:52:15.294Z,4.00
2019-01-11T04:53:15.312Z,4.00
2019-01-11T04:54:15.326Z,4.00
2019-01-11T04:55:15.336Z,4.00
2019-01-11T04:56:15.352Z,4.00
2019-01-11T04:57:15.367Z,4.00
2019-01-11T04:58:15.379Z,4.00
2019-01-11T04:59:15.394Z,4.00
2019-01-11T05:00:15.407Z,4.00
2019-01-11T05:01:15.417Z,4.00
2019-01-11T05:02:15.438Z,4.00
2019-01-11T05:03:15.454Z,4.00
2019-01-11T05:04:15.464Z,4.00
2019-01-11T05:05:15.472Z,4.00
2019-01-11T05:06:15.487Z,4.00
2019-01-11T05:07:15.501Z,4.00
2019-01-11T05:08:15.515Z,4.00
2019-01-11T05:09:15.530Z,4.00
2019-01-11T05:10:15.550Z,4.00
2019-01-11T05:11:15.563Z,4.00
2019-01-11T05:12:15.570Z,4.00
2019-01-11T05:13:15.588Z,4.00
2019-01-11T05:14:15.597Z,4.00
2019-01-11T05:15:15.617Z,4.00
2019-01-11T05:16:15.625Z,4.00
2019-01-11T05:17:15.638Z,4.00
2019-01-11T05:18:15.655Z,4.00
2019-01-11T05:19:15.672Z,4.00
2019-01-11T05:20:17.286Z,4.00
2019-01-11T05:21:15.696Z,4.00
2019-01-11T05:22:15.708Z,4.00
2019-01-11T05:23:15.724Z,4.00
2019-01-11T05:24:15.736Z,4.00
2019-01-11T05:25:15.748Z,4.00
2019-01-11T05:26:15.761Z,4.00
2019-01-11T05:27:15.775Z,4.00
2019-01-11T05:28:15.788Z,4.00
2019-01-11T05:29:15.804Z,4.00
2019-01-11T05:30:15.817Z,4.00
2019-01-11T05:31:15.831Z,4.00
2019-01-11T05:32:15.843Z,4.00
2019-01-11T05:33:15.860Z,4.00
2019-01-11T05:34:15.871Z,4.00
2019-01-11T05:35:15.890Z,4.00
2019-01-11T05:36:15.900Z,4.00
2019-01-11T05:37:15.915Z,4.00
2019-01-11T05:38:15.928Z,4.00
2019-01-11T05:39:16.396Z,4.00
2019-01-11T05:40:15.994Z,4.00
2019-01-11T05:41:15.969Z,4.00
2019-01-11T05:42:16.037Z,4.00
2019-01-11T05:43:16.000Z,4.00
2019-01-11T05:44:16.011Z,4.00
2019-01-11T05:45:16.026Z,4.00
2019-01-11T05:46:16.041Z,4.00
2019-01-11T05:47:16.052Z,4.00
2019-01-11T05:48:16.065Z,4.00
2019-01-11T05:49:16.079Z,4.00
2019-01-11T05:50:16.093Z,4.00
2019-01-11T05:51:16.108Z,4.00
2019-01-11T05:52:16.120Z,4.00
2019-01-11T05:53:16.135Z,4.00
2019-01-11T05:54:16.151Z,4.00
2019-01-11T05:55:16.165Z,4.00
2019-01-11T05:56:16.180Z,4.00
2019-01-11T05:57:16.191Z,4.00
2019-01-11T05:58:16.207Z,4.00
2019-01-11T05:59:16.220Z,4.00
2019-01-11T06:00:16.233Z,4.00
2019-01-11T06:01:16.245Z,4.00
2019-01-11T06:02:16.263Z,4.00
2019-01-11T06:03:16.277Z,4.00
2019-01-11T06:04:16.290Z,4.00
2019-01-11T06:05:16.303Z,4.00
2019-01-11T06:06:16.323Z,4.00
2019-01-11T06:07:16.330Z,4.00
2019-01-11T06:08:16.343Z,4.00
2019-01-11T06:09:16.360Z,4.00
2019-01-11T06:10:16.377Z,4.00
2019-01-11T06:11:16.389Z,4.00
2019-01-11T06:12:16.398Z,4.00
2019-01-11T06:13:16.413Z,4.00
2019-01-11T06:14:16.426Z,4.00
2019-01-11T06:15:16.441Z,4.00
2019-01-11T06:16:16.603Z,4.00
2019-01-11T06:17:16.468Z,4.00
2019-01-11T06:18:16.482Z,4.00
2019-01-11T06:19:16.499Z,4.00
2019-01-11T06:20:16.511Z,4.00
2019-01-11T06:21:16.524Z,4.00
2019-01-11T06:22:16.540Z,4.00
2019-01-11T06:23:16.554Z,4.00
2019-01-11T06:24:16.567Z,4.00
2019-01-11T06:25:16.581Z,4.00
2019-01-11T06:26:16.595Z,4.00
2019-01-11T06:27:16.609Z,4.00
2019-01-11T06:28:16.619Z,4.00
2019-01-11T06:29:16.637Z,4.00
2019-01-11T06:30:16.649Z,16.00
2019-01-11T06:31:16.667Z,4.00
2019-01-11T06:32:16.679Z,4.00
2019-01-11T06:33:16.691Z,4.00
2019-01-11T06:34:16.704Z,4.00
2019-01-11T06:35:16.717Z,4.00
2019-01-11T06:36:16.733Z,4.00
2019-01-11T06:37:16.747Z,4.00
2019-01-11T06:38:16.765Z,4.00
2019-01-11T06:39:16.773Z,4.00
2019-01-11T06:40:16.787Z,4.00
2019-01-11T06:41:16.802Z,4.00
2019-01-11T06:42:16.817Z,4.00
2019-01-11T06:43:16.829Z,4.00
2019-01-11T06:44:16.842Z,4.00
2019-01-11T06:45:16.858Z,4.00
2019-01-11T06:46:16.874Z,4.00
2019-01-11T06:47:18.431Z,4.00
2019-01-11T06:48:16.898Z,4.00
2019-01-11T06:49:16.916Z,4.00
2019-01-11T06:50:16.928Z,4.00
2019-01-11T06:51:16.943Z,4.00
2019-01-11T06:52:16.954Z,4.00
2019-01-11T06:53:16.968Z,4.00
2019-01-11T06:54:16.985Z,4.00
2019-01-11T06:55:16.997Z,4.00
2019-01-11T06:56:17.014Z,4.00
2019-01-11T06:57:17.378Z,4.00
2019-01-11T06:58:17.040Z,4.00
2019-01-11T06:59:17.060Z,4.00
2019-01-11T07:00:17.068Z,4.00
2019-01-11T07:01:17.081Z,4.00
2019-01-11T07:02:17.097Z,4.00
2019-01-11T07:03:17.110Z,0.00
2019-01-11T07:04:17.123Z,4.00
2019-01-11T07:05:17.137Z,4.00
2019-01-11T07:06:17.151Z,4.00
2019-01-11T07:07:17.166Z,4.00
2019-01-11T07:08:17.180Z,4.00
2019-01-11T07:09:17.195Z,4.00
2019-01-11T07:10:17.211Z,4.00
2019-01-11T07:11:17.221Z,8.00
2019-01-11T07:12:17.234Z,8.00
2019-01-11T07:13:17.248Z,8.00
2019-01-11T07:14:17.262Z,8.00
2019-01-11T07:15:17.279Z,4.00
2019-01-11T07:16:17.292Z,8.00
2019-01-11T07:17:17.306Z,8.00
2019-01-11T07:18:17.318Z,8.00
2019-01-11T07:19:17.331Z,8.00
2019-01-11T07:20:17.345Z,8.00
2019-01-11T07:21:17.365Z,12.00
2019-01-11T07:22:17.375Z,12.00
2019-01-11T07:23:17.387Z,12.00
2019-01-11T07:24:17.403Z,16.00
2019-01-11T07:25:17.418Z,12.00
2019-01-11T07:26:17.431Z,12.00
2019-01-11T07:27:17.443Z,16.00
2019-01-11T07:28:17.458Z,16.00
2019-01-11T07:29:17.477Z,20.00
2019-01-11T07:30:17.486Z,20.00
2019-01-11T07:31:17.501Z,24.00
2019-01-11T07:32:17.515Z,28.00
2019-01-11T07:33:17.526Z,28.00
2019-01-11T07:34:17.543Z,28.00
2019-01-11T07:35:17.557Z,32.00
2019-01-11T07:36:17.573Z,32.00
2019-01-11T07:37:17.582Z,36.00
2019-01-11T07:38:17.597Z,36.00
2019-01-11T07:39:17.613Z,40.00
2019-01-11T07:40:17.627Z,44.00
2019-01-11T07:41:17.638Z,48.00
2019-01-11T07:42:17.655Z,56.00
2019-01-11T07:43:17.667Z,56.00
2019-01-11T07:44:17.686Z,60.00
2019-01-11T07:45:17.695Z,64.00
2019-01-11T07:46:17.711Z,68.00
2019-01-11T07:47:17.725Z,68.00
2019-01-11T07:48:17.740Z,72.00
2019-01-11T07:49:23.105Z,68.00
2019-01-11T07:50:17.765Z,84.00
2019-01-11T07:51:17.781Z,108.00
2019-01-11T07:52:17.792Z,112.00
2019-01-11T07:53:17.809Z,116.00
2019-01-11T07:54:17.822Z,112.00
2019-01-11T07:55:18.089Z,120.00
2019-01-11T07:56:17.851Z,132.00
2019-01-11T07:57:17.871Z,140.00
2019-01-11T07:58:17.880Z,164.00
2019-01-11T07:59:17.894Z,180.00
2019-01-11T08:00:17.909Z,188.00
2019-01-11T08:01:17.924Z,200.00
2019-01-11T08:02:17.935Z,212.00
2019-01-11T08:03:17.950Z,236.00
2019-01-11T08:04:17.962Z,272.00
2019-01-11T08:05:17.980Z,288.00
2019-01-11T08:06:17.998Z,256.00
2019-01-11T08:07:18.007Z,252.00
2019-01-11T08:08:18.019Z,276.00
2019-01-11T08:09:18.035Z,296.00
2019-01-11T08:10:18.047Z,316.00
2019-01-11T08:11:18.064Z,332.00
2019-01-11T08:12:18.075Z,296.00
2019-01-11T08:13:18.093Z,248.00
2019-01-11T08:14:18.104Z,244.00
2019-01-11T08:15:18.171Z,260.00
2019-01-11T08:16:18.131Z,228.00
2019-01-11T08:17:18.148Z,216.00
2019-01-11T08:18:18.228Z,228.00
2019-01-11T08:19:18.177Z,240.00
2019-01-11T08:20:18.187Z,260.00
2019-01-11T08:21:18.204Z,260.00
2019-01-11T08:22:18.242Z,252.00
2019-01-11T08:23:18.231Z,248.00
2019-01-11T08:24:18.248Z,244.00
2019-01-11T08:25:18.259Z,256.00
2019-01-11T08:26:18.273Z,276.00
2019-01-11T08:27:18.287Z,292.00
2019-01-11T08:28:18.301Z,284.00
2019-01-11T08:29:18.315Z,256.00
2019-01-11T08:30:18.329Z,220.00
2019-01-11T08:31:18.347Z,208.00
2019-01-11T08:32:18.357Z,208.00
2019-01-11T08:33:18.882Z,224.00
2019-01-11T08:34:18.388Z,260.00
2019-01-11T08:35:18.404Z,268.00
2019-01-11T08:36:18.422Z,300.00
2019-01-11T08:37:18.428Z,360.00
2019-01-11T08:38:18.444Z,356.00
2019-01-11T08:39:18.459Z,340.00
2019-01-11T08:40:18.476Z,332.00
2019-01-11T08:41:18.487Z,380.00
2019-01-11T08:42:18.505Z,364.00
2019-01-11T08:43:18.518Z,416.00
2019-01-11T08:44:18.530Z,520.00
2019-01-11T08:45:18.542Z,540.00
2019-01-11T08:46:18.556Z,480.00
2019-01-11T08:47:18.573Z,420.00
2019-01-11T08:48:18.586Z,368.00
2019-01-11T08:49:18.600Z,304.00
2019-01-11T08:50:18.616Z,320.00
2019-01-11T08:51:18.628Z,344.00
2019-01-11T08:52:18.643Z,360.00
2019-01-11T08:53:18.656Z,440.00
2019-01-11T08:54:18.671Z,440.00
2019-01-11T08:55:18.693Z,464.00
2019-01-11T08:56:18.701Z,592.00
2019-01-11T08:57:18.713Z,588.00
2019-01-11T08:58:18.730Z,652.00
2019-01-11T08:59:18.742Z,604.00
2019-01-11T09:00:18.755Z,632.00
2019-01-11T09:01:18.872Z,776.00
2019-01-11T09:02:18.792Z,788.00
2019-01-11T09:03:18.800Z,752.00
2019-01-11T09:04:18.816Z,840.00
2019-01-11T09:05:18.828Z,884.00
2019-01-11T09:06:18.842Z,916.00
2019-01-11T09:07:18.864Z,964.00
2019-01-11T09:08:18.876Z,972.00
2019-01-11T09:09:18.885Z,992.00
2019-01-11T09:10:22.595Z,1012.00
2019-01-11T09:11:18.917Z,1020.00
2019-01-11T09:12:18.931Z,1000.00
2019-01-11T09:13:18.946Z,1000.00
2019-01-11T09:14:18.958Z,912.00
2019-01-11T09:15:18.977Z,924.00
2019-01-11T09:16:20.806Z,936.00
2019-01-11T09:17:19.002Z,900.00
2019-01-11T09:18:19.019Z,880.00
2019-01-11T09:19:19.034Z,868.00
2019-01-11T09:20:19.047Z,852.00
2019-01-11T09:21:19.063Z,876.00
2019-01-11T09:22:19.077Z,892.00
2019-01-11T09:23:19.090Z,896.00
2019-01-11T09:24:19.104Z,888.00
2019-01-11T09:25:19.123Z,860.00
2019-01-11T09:26:19.141Z,888.00
2019-01-11T09:27:19.157Z,872.00
2019-01-11T09:28:19.164Z,892.00
2019-01-11T09:29:19.185Z,912.00
2019-01-11T09:30:19.196Z,916.00
2019-01-11T09:31:19.209Z,936.00
2019-01-11T09:32:19.227Z,976.00
2019-01-11T09:33:20.729Z,1028.00
2019-01-11T09:34:19.506Z,1076.00
2019-01-11T09:35:19.272Z,1120.00
2019-01-11T09:36:19.282Z,1108.00
2019-01-11T09:37:19.297Z,1056.00
2019-01-11T09:38:19.412Z,1088.00
2019-01-11T09:39:19.330Z,1140.00
2019-01-11T09:40:19.341Z,1140.00
2019-01-11T09:41:19.356Z,1168.00
2019-01-11T09:42:19.374Z,1300.00
2019-01-11T09:43:19.387Z,1380.00
2019-01-11T09:44:19.402Z,1420.00
2019-01-11T09:45:19.416Z,1436.00
2019-01-11T09:46:19.433Z,1448.00
2019-01-11T09:47:19.449Z,1400.00
2019-01-11T09:48:19.464Z,1456.00
2019-01-11T09:49:19.476Z,1492.00
2019-01-11T09:50:19.494Z,1528.00
2019-01-11T09:51:19.505Z,1432.00
2019-01-11T09:52:19.522Z,1328.00
2019-01-11T09:53:19.536Z,1296.00
2019-01-11T09:54:19.599Z,1184.00
2019-01-11T09:55:19.569Z,1204.00
2019-01-11T09:56:19.582Z,1268.00
2019-01-11T09:57:19.603Z,1260.00
2019-01-11T09:58:19.613Z,1100.00
2019-01-11T09:59:19.627Z,1040.00
2019-01-11T10:00:19.642Z,1084.00
2019-01-11T10:01:19.659Z,1048.00
2019-01-11T10:02:19.671Z,1040.00
2019-01-11T10:03:19.687Z,1140.00
2019-01-11T10:04:19.701Z,1220.00
2019-01-11T10:05:19.716Z,1356.00
2019-01-11T10:06:19.733Z,1472.00
2019-01-11T10:07:19.745Z,1568.00
2019-01-11T10:08:20.111Z,1760.00
2019-01-11T10:09:19.776Z,2024.00
2019-01-11T10:10:19.801Z,2088.00
2019-01-11T10:11:19.805Z,2008.00
2019-01-11T10:12:19.819Z,2076.00
2019-01-11T10:13:19.837Z,2064.00
2019-01-11T10:14:19.852Z,1988.00
2019-01-11T10:15:19.866Z,1788.00
2019-01-11T10:16:19.882Z,1708.00
2019-01-11T10:17:19.896Z,1656.00
2019-01-11T10:18:19.910Z,1564.00
2019-01-11T10:19:19.925Z,1472.00
2019-01-11T10:20:19.941Z,1560.00
2019-01-11T10:21:23.059Z,1716.00
2019-01-11T10:22:19.992Z,1844.00
2019-01-11T10:23:19.987Z,1760.00
2019-01-11T10:24:20.000Z,1780.00
2019-01-11T10:25:20.020Z,1988.00
2019-01-11T10:26:20.031Z,2072.00
2019-01-11T10:27:20.046Z,2196.00
2019-01-11T10:28:20.060Z,2244.00
2019-01-11T10:29:20.079Z,2100.00
2019-01-11T10:30:20.102Z,2052.00
2019-01-11T10:31:20.108Z,1760.00
2019-01-11T10:32:20.122Z,1804.00
2019-01-11T10:33:20.140Z,1792.00
2019-01-11T10:34:20.152Z,1716.00
2019-01-11T10:35:20.168Z,1420.00
2019-01-11T10:36:20.182Z,1200.00
2019-01-11T10:37:20.197Z,1136.00
2019-01-11T10:38:20.215Z,1180.00
2019-01-11T10:39:20.232Z,1152.00
2019-01-11T10:40:20.247Z,1136.00
2019-01-11T10:41:20.263Z,1076.00
2019-01-11T10:42:20.377Z,1140.00
2019-01-11T10:43:20.294Z,1188.00
2019-01-11T10:44:20.305Z,1200.00
2019-01-11T10:45:20.322Z,1184.00
2019-01-11T10:46:20.338Z,1216.00
2019-01-11T10:47:20.354Z,1232.00
2019-01-11T10:48:20.366Z,1432.00
2019-01-11T10:49:20.383Z,1588.00
2019-01-11T10:50:20.399Z,1548.00
2019-01-11T10:51:20.414Z,1684.00
2019-01-11T10:52:20.431Z,1688.00
2019-01-11T10:53:20.446Z,1716.00
2019-01-11T10:54:20.460Z,1728.00
2019-01-11T10:55:20.476Z,1596.00
2019-01-11T10:56:20.491Z,1380.00
2019-01-11T10:57:20.509Z,1220.00
2019-01-11T10:58:20.523Z,1272.00
2019-01-11T10:59:20.537Z,1208.00
2019-01-11T11:00:20.555Z,1468.00
2019-01-11T11:01:20.570Z,1548.00
2019-01-11T11:02:20.586Z,1472.00
2019-01-11T11:03:20.602Z,1512.00
2019-01-11T11:04:20.617Z,1296.00
2019-01-11T11:05:20.633Z,1216.00
2019-01-11T11:06:20.646Z,1148.00
2019-01-11T11:07:20.661Z,1200.00
2019-01-11T11:08:20.679Z,1356.00
2019-01-11T11:09:20.692Z,1628.00
2019-01-11T11:10:20.710Z,1684.00
2019-01-11T11:11:20.724Z,1484.00
2019-01-11T11:12:20.740Z,1220.00
2019-01-11T11:13:20.754Z,1088.00
2019-01-11T11:14:20.771Z,1088.00
2019-01-11T11:15:20.789Z,1040.00
2019-01-11T11:16:20.800Z,1020.00
2019-01-11T11:17:20.816Z,1064.00
2019-01-11T11:18:20.835Z,1088.00
2019-01-11T11:19:20.891Z,1404.00
2019-01-11T11:20:20.865Z,1220.00
2019-01-11T11:21:20.878Z,1132.00
2019-01-11T11:22:21.297Z,1112.00
2019-01-11T11:23:20.910Z,1152.00
2019-01-11T11:24:20.927Z,1096.00
2019-01-11T11:25:21.294Z,992.00
2019-01-11T11:26:20.956Z,1068.00
2019-01-11T11:27:20.975Z,1040.00
2019-01-11T11:28:20.987Z,992.00
2019-01-11T11:29:21.006Z,980.00
2019-01-11T11:30:21.021Z,964.00
2019-01-11T11:31:21.037Z,1104.00
2019-01-11T11:32:21.052Z,1148.00
2019-01-11T11:33:21.067Z,1208.00
2019-01-11T11:34:21.081Z,1228.00
2019-01-11T11:35:21.099Z,1136.00
2019-01-11T11:36:21.114Z,1084.00
2019-01-11T11:37:21.128Z,1120.00
2019-01-11T11:38:21.146Z,1092.00
2019-01-11T11:39:21.163Z,1076.00
2019-01-11T11:40:21.176Z,980.00
2019-01-11T11:41:21.194Z,1100.00
2019-01-11T11:42:21.207Z,1196.00
2019-01-11T11:43:21.226Z,1156.00
2019-01-11T11:44:21.238Z,1228.00
2019-01-11T11:45:21.254Z,1316.00
2019-01-11T11:46:21.270Z,1344.00
2019-01-11T11:47:21.287Z,1432.00
2019-01-11T11:48:21.307Z,1272.00
2019-01-11T11:49:21.320Z,1364.00
2019-01-11T11:50:21.333Z,1360.00
2019-01-11T11:51:21.349Z,1396.00
2019-01-11T11:52:21.364Z,1384.00
2019-01-11T11:53:21.380Z,1348.00
2019-01-11T11:54:21.399Z,1404.00
2019-01-11T11:55:21.412Z,1540.00
2019-01-11T11:56:21.429Z,1540.00
2019-01-11T11:57:21.445Z,1564.00
2019-01-11T11:58:21.462Z,1480.00
2019-01-11T11:59:21.475Z,1444.00
2019-01-11T12:00:21.493Z,1428.00
2019-01-11T12:01:21.507Z,1344.00
2019-01-11T12:02:21.526Z,1308.00
2019-01-11T12:03:21.541Z,1116.00
2019-01-11T12:04:21.554Z,1128.00
2019-01-11T12:05:21.572Z,1040.00
2019-01-11T12:06:21.589Z,1020.00
2019-01-11T12:07:21.604Z,1012.00
2019-01-11T12:08:21.617Z,1036.00
2019-01-11T12:09:21.635Z,944.00
2019-01-11T12:10:21.650Z,888.00
2019-01-11T12:11:21.666Z,848.00
2019-01-11T12:12:21.681Z,900.00
2019-01-11T12:13:21.701Z,1024.00
2019-01-11T12:14:21.713Z,912.00
2019-01-11T12:15:21.733Z,772.00
2019-01-11T12:16:21.744Z,784.00
2019-01-11T12:17:21.764Z,740.00
2019-01-11T12:18:21.779Z,712.00
2019-01-11T12:19:21.795Z,728.00
2019-01-11T12:20:21.808Z,796.00
2019-01-11T12:21:21.826Z,812.00
2019-01-11T12:22:21.911Z,840.00
2019-01-11T12:23:21.856Z,900.00
2019-01-11T12:24:21.874Z,1008.00
2019-01-11T12:25:21.892Z,1064.00
2019-01-11T12:26:21.903Z,1200.00
2019-01-11T12:27:21.922Z,1176.00
2019-01-11T12:28:21.937Z,1036.00
2019-01-11T12:29:21.952Z,1056.00
2019-01-11T12:30:21.970Z,996.00
2019-01-11T12:31:21.985Z,1008.00
2019-01-11T12:32:22.000Z,1080.00
2019-01-11T12:33:22.016Z,1156.00
2019-01-11T12:34:22.031Z,1072.00
2019-01-11T12:35:22.046Z,1048.00
2019-01-11T12:36:22.064Z,932.00
2019-01-11T12:37:22.078Z,772.00
2019-01-11T12:38:22.097Z,700.00
2019-01-11T12:39:22.116Z,592.00
2019-01-11T12:40:22.125Z,708.00
2019-01-11T12:41:22.145Z,576.00
2019-01-11T12:42:22.162Z,496.00
2019-01-11T12:43:22.174Z,492.00
2019-01-11T12:44:22.291Z,576.00
2019-01-11T12:45:22.248Z,524.00
2019-01-11T12:46:22.222Z,508.00
2019-01-11T12:47:22.237Z,484.00
2019-01-11T12:48:22.253Z,540.00
2019-01-11T12:49:22.272Z,764.00
2019-01-11T12:50:22.286Z,872.00
2019-01-11T12:51:22.300Z,940.00